sensor_id;sensor_type;location;lat;lon;timestamp;P1;durP1;ratioP1;P2;durP2;ratioP2
434;SDS011;204;48.942;9.256;2023-08-21T00:00:36;13.20;;;10.13;;
434;SDS011;204;48.942;9.256;2023-08-21T00:03:01;12.53;;;9.73;;
434;SDS011;204;48.942;9.256;2023-08-21T00:05:27;10.00;;;9.50;;
434;SDS011;204;48.942;9.256;2023-08-21T00:07:52;9.17;;;8.67;;
434;SDS011;204;48.942;9.256;2023-08-21T00:10:18;9.37;;;8.87;;
434;SDS011;204;48.942;9.256;2023-08-21T00:12:43;10.10;;;9.60;;
434;SDS011;204;48.942;9.256;2023-08-21T00:15:09;11.20;;;9.60;;
434;SDS011;204;48.942;9.256;2023-08-21T00:17:35;12.17;;;10.10;;
434;SDS011;204;48.942;9.256;2023-08-21T00:20:00;13.23;;;9.70;;
434;SDS011;204;48.942;9.256;2023-08-21T00:22:27;11.10;;;8.63;;
434;SDS011;204;48.942;9.256;2023-08-21T00:24:53;9.57;;;9.10;;
434;SDS011;204;48.942;9.256;2023-08-21T00:27:18;9.97;;;9.47;;
434;SDS011;204;48.942;9.256;2023-08-21T00:29:44;11.00;;;10.40;;
434;SDS011;204;48.942;9.256;2023-08-21T00:32:09;9.60;;;9.17;;
434;SDS011;204;48.942;9.256;2023-08-21T00:34:37;9.67;;;9.20;;
434;SDS011;204;48.942;9.256;2023-08-21T00:37:03;11.70;;;10.80;;
434;SDS011;204;48.942;9.256;2023-08-21T00:39:29;10.90;;;9.90;;
434;SDS011;204;48.942;9.256;2023-08-21T00:41:54;9.90;;;9.43;;
434;SDS011;204;48.942;9.256;2023-08-21T00:44:20;12.03;;;10.37;;
434;SDS011;204;48.942;9.256;2023-08-21T00:46:46;10.23;;;9.73;;
434;SDS011;204;48.942;9.256;2023-08-21T00:49:11;9.80;;;9.30;;
434;SDS011;204;48.942;9.256;2023-08-21T00:51:37;9.60;;;9.10;;
434;SDS011;204;48.942;9.256;2023-08-21T00:54:03;12.93;;;10.30;;
434;SDS011;204;48.942;9.256;2023-08-21T00:56:28;10.43;;;9.90;;
434;SDS011;204;48.942;9.256;2023-08-21T00:58:55;10.00;;;9.50;;
434;SDS011;204;48.942;9.256;2023-08-21T01:01:22;11.00;;;10.20;;
434;SDS011;204;48.942;9.256;2023-08-21T01:03:50;9.93;;;9.43;;
434;SDS011;204;48.942;9.256;2023-08-21T01:06:16;11.67;;;9.30;;
434;SDS011;204;48.942;9.256;2023-08-21T01:09:03;10.90;;;10.13;;
434;SDS011;204;48.942;9.256;2023-08-21T01:14:31;10.70;;;10.10;;
434;SDS011;204;48.942;9.256;2023-08-21T01:17:22;10.03;;;9.47;;
434;SDS011;204;48.942;9.256;2023-08-21T01:19:49;10.20;;;9.70;;
434;SDS011;204;48.942;9.256;2023-08-21T01:22:16;10.40;;;9.90;;
434;SDS011;204;48.942;9.256;2023-08-21T01:24:41;13.33;;;10.33;;
434;SDS011;204;48.942;9.256;2023-08-21T01:27:07;11.07;;;10.47;;
434;SDS011;204;48.942;9.256;2023-08-21T01:29:35;10.47;;;9.93;;
434;SDS011;204;48.942;9.256;2023-08-21T01:34:35;10.97;;;10.37;;
434;SDS011;204;48.942;9.256;2023-08-21T01:37:03;15.70;;;11.47;;
434;SDS011;204;48.942;9.256;2023-08-21T01:39:29;10.63;;;10.03;;
434;SDS011;204;48.942;9.256;2023-08-21T01:41:56;13.03;;;10.23;;
434;SDS011;204;48.942;9.256;2023-08-21T01:44:22;10.73;;;10.13;;
434;SDS011;204;48.942;9.256;2023-08-21T01:46:48;11.40;;;10.80;;
434;SDS011;204;48.942;9.256;2023-08-21T01:49:13;11.77;;;11.00;;
434;SDS011;204;48.942;9.256;2023-08-21T01:51:39;12.03;;;11.43;;
434;SDS011;204;48.942;9.256;2023-08-21T01:54:05;11.47;;;10.70;;
434;SDS011;204;48.942;9.256;2023-08-21T01:56:30;11.00;;;10.40;;
434;SDS011;204;48.942;9.256;2023-08-21T01:58:56;11.53;;;10.93;;
434;SDS011;204;48.942;9.256;2023-08-21T02:01:21;10.87;;;10.30;;
434;SDS011;204;48.942;9.256;2023-08-21T02:03:48;12.00;;;10.30;;
434;SDS011;204;48.942;9.256;2023-08-21T02:06:14;11.17;;;10.57;;
434;SDS011;204;48.942;9.256;2023-08-21T02:08:39;11.27;;;10.40;;
434;SDS011;204;48.942;9.256;2023-08-21T02:11:05;11.50;;;10.90;;
434;SDS011;204;48.942;9.256;2023-08-21T02:13:31;10.37;;;9.87;;
434;SDS011;204;48.942;9.256;2023-08-21T02:15:57;12.57;;;11.00;;
434;SDS011;204;48.942;9.256;2023-08-21T02:18:23;11.30;;;10.70;;
434;SDS011;204;48.942;9.256;2023-08-21T02:20:49;11.73;;;10.37;;
434;SDS011;204;48.942;9.256;2023-08-21T02:23:14;12.13;;;10.40;;
434;SDS011;204;48.942;9.256;2023-08-21T02:25:40;11.00;;;10.40;;
434;SDS011;204;48.942;9.256;2023-08-21T02:28:06;10.97;;;10.37;;
434;SDS011;204;48.942;9.256;2023-08-21T02:30:32;12.00;;;11.40;;
434;SDS011;204;48.942;9.256;2023-08-21T02:32:57;11.77;;;11.10;;
434;SDS011;204;48.942;9.256;2023-08-21T02:35:23;11.23;;;10.63;;
434;SDS011;204;48.942;9.256;2023-08-21T02:37:49;11.90;;;11.30;;
434;SDS011;204;48.942;9.256;2023-08-21T02:40:14;12.73;;;11.43;;
434;SDS011;204;48.942;9.256;2023-08-21T02:42:40;12.03;;;11.43;;
434;SDS011;204;48.942;9.256;2023-08-21T02:45:06;11.07;;;10.47;;
434;SDS011;204;48.942;9.256;2023-08-21T02:47:35;13.00;;;11.13;;
434;SDS011;204;48.942;9.256;2023-08-21T02:50:05;11.33;;;10.73;;
434;SDS011;204;48.942;9.256;2023-08-21T02:52:32;12.30;;;11.70;;
434;SDS011;204;48.942;9.256;2023-08-21T02:54:59;13.53;;;10.80;;
434;SDS011;204;48.942;9.256;2023-08-21T02:57:25;11.90;;;11.27;;
434;SDS011;204;48.942;9.256;2023-08-21T02:59:51;13.40;;;12.70;;
434;SDS011;204;48.942;9.256;2023-08-21T03:02:17;13.10;;;12.40;;
434;SDS011;204;48.942;9.256;2023-08-21T03:04:43;11.70;;;11.10;;
434;SDS011;204;48.942;9.256;2023-08-21T03:07:09;11.40;;;10.80;;
434;SDS011;204;48.942;9.256;2023-08-21T03:09:36;12.00;;;11.40;;
434;SDS011;204;48.942;9.256;2023-08-21T03:12:01;12.80;;;12.10;;
434;SDS011;204;48.942;9.256;2023-08-21T03:14:27;12.70;;;12.00;;
434;SDS011;204;48.942;9.256;2023-08-21T03:16:52;15.80;;;11.80;;
434;SDS011;204;48.942;9.256;2023-08-21T03:19:18;12.00;;;11.40;;
434;SDS011;204;48.942;9.256;2023-08-21T03:21:44;13.87;;;12.80;;
434;SDS011;204;48.942;9.256;2023-08-21T03:24:09;15.07;;;11.87;;
434;SDS011;204;48.942;9.256;2023-08-21T03:26:35;14.23;;;12.70;;
434;SDS011;204;48.942;9.256;2023-08-21T03:29:01;13.23;;;10.97;;
434;SDS011;204;48.942;9.256;2023-08-21T03:31:26;11.70;;;11.10;;
434;SDS011;204;48.942;9.256;2023-08-21T03:33:52;15.27;;;12.67;;
434;SDS011;204;48.942;9.256;2023-08-21T03:36:18;13.00;;;12.30;;
434;SDS011;204;48.942;9.256;2023-08-21T03:38:44;13.40;;;12.70;;
434;SDS011;204;48.942;9.256;2023-08-21T03:41:09;12.33;;;11.73;;
434;SDS011;204;48.942;9.256;2023-08-21T03:43:35;13.30;;;12.60;;
434;SDS011;204;48.942;9.256;2023-08-21T03:46:01;13.03;;;12.33;;
434;SDS011;204;48.942;9.256;2023-08-21T03:48:27;11.40;;;10.80;;
434;SDS011;204;48.942;9.256;2023-08-21T03:50:52;12.70;;;11.73;;
434;SDS011;204;48.942;9.256;2023-08-21T03:53:18;13.00;;;12.30;;
434;SDS011;204;48.942;9.256;2023-08-21T03:55:43;13.37;;;12.67;;
434;SDS011;204;48.942;9.256;2023-08-21T03:58:09;12.73;;;12.03;;
434;SDS011;204;48.942;9.256;2023-08-21T04:00:35;13.10;;;12.40;;
434;SDS011;204;48.942;9.256;2023-08-21T04:03:00;14.73;;;12.60;;
434;SDS011;204;48.942;9.256;2023-08-21T04:05:26;13.80;;;12.70;;
434;SDS011;204;48.942;9.256;2023-08-21T04:07:51;12.53;;;11.90;;
434;SDS011;204;48.942;9.256;2023-08-21T04:10:17;16.63;;;11.90;;
434;SDS011;204;48.942;9.256;2023-08-21T04:12:42;13.63;;;12.93;;
434;SDS011;204;48.942;9.256;2023-08-21T04:15:08;12.70;;;12.00;;
434;SDS011;204;48.942;9.256;2023-08-21T04:17:35;12.60;;;11.97;;
434;SDS011;204;48.942;9.256;2023-08-21T04:20:00;13.77;;;13.07;;
434;SDS011;204;48.942;9.256;2023-08-21T04:22:26;12.37;;;11.77;;
434;SDS011;204;48.942;9.256;2023-08-21T04:24:51;13.80;;;12.87;;
434;SDS011;204;48.942;9.256;2023-08-21T04:27:17;16.03;;;14.13;;
434;SDS011;204;48.942;9.256;2023-08-21T04:29:42;14.90;;;12.77;;
434;SDS011;204;48.942;9.256;2023-08-21T04:32:08;19.27;;;13.63;;
434;SDS011;204;48.942;9.256;2023-08-21T04:34:33;13.80;;;13.10;;
434;SDS011;204;48.942;9.256;2023-08-21T04:36:59;17.43;;;14.53;;
434;SDS011;204;48.942;9.256;2023-08-21T04:39:25;14.53;;;13.83;;
434;SDS011;204;48.942;9.256;2023-08-21T04:41:51;14.57;;;13.87;;
434;SDS011;204;48.942;9.256;2023-08-21T04:44:16;14.23;;;13.53;;
434;SDS011;204;48.942;9.256;2023-08-21T04:46:42;13.70;;;13.00;;
434;SDS011;204;48.942;9.256;2023-08-21T04:49:08;14.77;;;14.00;;
434;SDS011;204;48.942;9.256;2023-08-21T04:51:33;15.40;;;14.47;;
434;SDS011;204;48.942;9.256;2023-08-21T04:53:59;14.13;;;12.90;;
434;SDS011;204;48.942;9.256;2023-08-21T04:56:25;14.30;;;13.60;;
434;SDS011;204;48.942;9.256;2023-08-21T04:58:51;14.30;;;13.60;;
434;SDS011;204;48.942;9.256;2023-08-21T05:01:17;13.80;;;13.10;;
434;SDS011;204;48.942;9.256;2023-08-21T05:03:43;15.87;;;12.20;;
434;SDS011;204;48.942;9.256;2023-08-21T05:06:08;13.80;;;13.10;;
434;SDS011;204;48.942;9.256;2023-08-21T05:08:34;12.80;;;11.73;;
434;SDS011;204;48.942;9.256;2023-08-21T05:11:00;14.70;;;12.33;;
434;SDS011;204;48.942;9.256;2023-08-21T05:13:27;13.73;;;12.57;;
434;SDS011;204;48.942;9.256;2023-08-21T05:15:53;14.03;;;10.97;;
434;SDS011;204;48.942;9.256;2023-08-21T05:18:20;12.43;;;11.83;;
434;SDS011;204;48.942;9.256;2023-08-21T05:20:47;15.10;;;14.23;;
434;SDS011;204;48.942;9.256;2023-08-21T05:23:13;21.37;;;20.27;;
434;SDS011;204;48.942;9.256;2023-08-21T05:25:39;19.40;;;18.40;;
434;SDS011;204;48.942;9.256;2023-08-21T05:28:05;26.20;;;24.90;;
434;SDS011;204;48.942;9.256;2023-08-21T05:30:31;26.83;;;24.17;;
434;SDS011;204;48.942;9.256;2023-08-21T05:32:57;20.13;;;19.13;;
434;SDS011;204;48.942;9.256;2023-08-21T05:35:23;21.93;;;20.03;;
434;SDS011;204;48.942;9.256;2023-08-21T05:37:48;20.57;;;17.10;;
434;SDS011;204;48.942;9.256;2023-08-21T05:40:14;19.13;;;18.13;;
434;SDS011;204;48.942;9.256;2023-08-21T05:42:39;17.67;;;16.77;;
434;SDS011;204;48.942;9.256;2023-08-21T05:45:05;18.40;;;17.50;;
434;SDS011;204;48.942;9.256;2023-08-21T05:47:31;18.47;;;17.60;;
434;SDS011;204;48.942;9.256;2023-08-21T05:49:57;17.63;;;16.73;;
434;SDS011;204;48.942;9.256;2023-08-21T05:52:22;19.07;;;18.07;;
434;SDS011;204;48.942;9.256;2023-08-21T05:54:48;19.80;;;17.10;;
434;SDS011;204;48.942;9.256;2023-08-21T05:57:14;21.73;;;17.40;;
434;SDS011;204;48.942;9.256;2023-08-21T05:59:43;14.27;;;13.57;;
434;SDS011;204;48.942;9.256;2023-08-21T06:02:10;15.37;;;13.20;;
434;SDS011;204;48.942;9.256;2023-08-21T06:04:37;14.87;;;13.33;;
434;SDS011;204;48.942;9.256;2023-08-21T06:07:04;14.30;;;13.03;;
434;SDS011;204;48.942;9.256;2023-08-21T06:09:30;12.20;;;10.83;;
434;SDS011;204;48.942;9.256;2023-08-21T06:11:56;15.37;;;11.80;;
434;SDS011;204;48.942;9.256;2023-08-21T06:14:22;12.57;;;11.93;;
434;SDS011;204;48.942;9.256;2023-08-21T06:16:53;11.03;;;10.43;;
434;SDS011;204;48.942;9.256;2023-08-21T06:19:23;13.30;;;10.47;;
434;SDS011;204;48.942;9.256;2023-08-21T06:21:49;11.40;;;9.70;;
434;SDS011;204;48.942;9.256;2023-08-21T06:24:15;11.20;;;10.60;;
434;SDS011;204;48.942;9.256;2023-08-21T06:26:41;11.70;;;10.53;;
434;SDS011;204;48.942;9.256;2023-08-21T06:29:06;10.73;;;10.17;;
434;SDS011;204;48.942;9.256;2023-08-21T06:31:32;13.20;;;10.37;;
434;SDS011;204;48.942;9.256;2023-08-21T06:33:58;14.40;;;10.07;;
434;SDS011;204;48.942;9.256;2023-08-21T06:36:23;10.60;;;10.00;;
434;SDS011;204;48.942;9.256;2023-08-21T06:38:49;10.80;;;10.20;;
434;SDS011;204;48.942;9.256;2023-08-21T06:41:14;10.17;;;9.67;;
434;SDS011;204;48.942;9.256;2023-08-21T06:43:40;11.47;;;10.07;;
434;SDS011;204;48.942;9.256;2023-08-21T06:46:06;12.20;;;10.27;;
434;SDS011;204;48.942;9.256;2023-08-21T06:48:32;11.93;;;11.33;;
434;SDS011;204;48.942;9.256;2023-08-21T06:50:59;17.37;;;16.27;;
434;SDS011;204;48.942;9.256;2023-08-21T06:53:24;12.47;;;11.17;;
434;SDS011;204;48.942;9.256;2023-08-21T06:55:50;11.60;;;10.93;;
434;SDS011;204;48.942;9.256;2023-08-21T06:58:15;14.80;;;11.70;;
434;SDS011;204;48.942;9.256;2023-08-21T07:00:41;19.97;;;18.97;;
434;SDS011;204;48.942;9.256;2023-08-21T07:03:06;10.63;;;10.03;;
434;SDS011;204;48.942;9.256;2023-08-21T07:05:33;12.33;;;10.47;;
434;SDS011;204;48.942;9.256;2023-08-21T07:07:59;12.63;;;11.97;;
434;SDS011;204;48.942;9.256;2023-08-21T07:10:24;13.37;;;10.13;;
434;SDS011;204;48.942;9.256;2023-08-21T07:12:50;11.17;;;10.40;;
434;SDS011;204;48.942;9.256;2023-08-21T07:15:16;11.40;;;10.80;;
434;SDS011;204;48.942;9.256;2023-08-21T07:17:42;13.57;;;11.33;;
434;SDS011;204;48.942;9.256;2023-08-21T07:20:07;10.93;;;10.17;;
434;SDS011;204;48.942;9.256;2023-08-21T07:22:33;13.10;;;10.70;;
434;SDS011;204;48.942;9.256;2023-08-21T07:24:59;12.30;;;9.67;;
434;SDS011;204;48.942;9.256;2023-08-21T07:27:28;11.40;;;10.80;;
434;SDS011;204;48.942;9.256;2023-08-21T07:29:54;10.97;;;9.73;;
434;SDS011;204;48.942;9.256;2023-08-21T07:32:20;9.80;;;9.30;;
434;SDS011;204;48.942;9.256;2023-08-21T07:34:45;11.23;;;10.30;;
434;SDS011;204;48.942;9.256;2023-08-21T07:37:11;9.17;;;8.67;;
434;SDS011;204;48.942;9.256;2023-08-21T07:39:37;12.97;;;9.90;;
434;SDS011;204;48.942;9.256;2023-08-21T07:42:02;12.07;;;9.23;;
434;SDS011;204;48.942;9.256;2023-08-21T07:44:28;10.90;;;9.80;;
434;SDS011;204;48.942;9.256;2023-08-21T07:46:54;11.13;;;10.53;;
434;SDS011;204;48.942;9.256;2023-08-21T07:49:19;11.70;;;11.03;;
434;SDS011;204;48.942;9.256;2023-08-21T07:51:45;11.63;;;9.80;;
434;SDS011;204;48.942;9.256;2023-08-21T07:54:11;9.90;;;9.20;;
434;SDS011;204;48.942;9.256;2023-08-21T07:56:37;11.70;;;10.50;;
434;SDS011;204;48.942;9.256;2023-08-21T07:59:04;9.10;;;8.50;;
434;SDS011;204;48.942;9.256;2023-08-21T08:01:30;9.43;;;8.90;;
434;SDS011;204;48.942;9.256;2023-08-21T08:03:55;13.10;;;9.93;;
434;SDS011;204;48.942;9.256;2023-08-21T08:06:21;11.70;;;8.77;;
434;SDS011;204;48.942;9.256;2023-08-21T08:08:48;11.40;;;10.00;;
434;SDS011;204;48.942;9.256;2023-08-21T08:11:13;9.07;;;8.57;;
434;SDS011;204;48.942;9.256;2023-08-21T08:13:39;17.03;;;10.87;;
434;SDS011;204;48.942;9.256;2023-08-21T08:16:04;10.73;;;10.13;;
434;SDS011;204;48.942;9.256;2023-08-21T08:18:30;11.37;;;9.03;;
434;SDS011;204;48.942;9.256;2023-08-21T08:20:55;11.47;;;10.20;;
434;SDS011;204;48.942;9.256;2023-08-21T08:23:21;8.37;;;7.93;;
434;SDS011;204;48.942;9.256;2023-08-21T08:25:48;11.20;;;8.13;;
434;SDS011;204;48.942;9.256;2023-08-21T08:28:13;8.53;;;8.03;;
434;SDS011;204;48.942;9.256;2023-08-21T08:30:39;11.23;;;8.37;;
434;SDS011;204;48.942;9.256;2023-08-21T08:33:05;9.07;;;8.53;;
434;SDS011;204;48.942;9.256;2023-08-21T08:35:31;14.53;;;8.40;;
434;SDS011;204;48.942;9.256;2023-08-21T08:37:56;9.20;;;7.53;;
434;SDS011;204;48.942;9.256;2023-08-21T08:40:22;8.40;;;7.63;;
434;SDS011;204;48.942;9.256;2023-08-21T08:42:47;10.13;;;8.80;;
434;SDS011;204;48.942;9.256;2023-08-21T08:45:13;9.73;;;7.97;;
434;SDS011;204;48.942;9.256;2023-08-21T08:47:39;12.13;;;9.03;;
434;SDS011;204;48.942;9.256;2023-08-21T08:50:06;9.50;;;7.73;;
434;SDS011;204;48.942;9.256;2023-08-21T08:52:37;9.87;;;8.20;;
434;SDS011;204;48.942;9.256;2023-08-21T08:55:04;8.70;;;8.20;;
434;SDS011;204;48.942;9.256;2023-08-21T08:57:32;13.37;;;7.57;;
434;SDS011;204;48.942;9.256;2023-08-21T08:59:58;11.30;;;7.03;;
434;SDS011;204;48.942;9.256;2023-08-21T09:02:25;9.93;;;8.10;;
434;SDS011;204;48.942;9.256;2023-08-21T09:04:51;8.63;;;7.90;;
434;SDS011;204;48.942;9.256;2023-08-21T09:07:17;9.03;;;8.03;;
434;SDS011;204;48.942;9.256;2023-08-21T09:09:45;10.10;;;9.00;;
434;SDS011;204;48.942;9.256;2023-08-21T09:12:12;10.30;;;8.23;;
434;SDS011;204;48.942;9.256;2023-08-21T09:14:39;11.03;;;8.60;;
434;SDS011;204;48.942;9.256;2023-08-21T09:17:06;9.77;;;9.10;;
434;SDS011;204;48.942;9.256;2023-08-21T09:19:32;13.93;;;8.83;;
434;SDS011;204;48.942;9.256;2023-08-21T09:21:58;8.40;;;7.73;;
434;SDS011;204;48.942;9.256;2023-08-21T09:24:23;12.77;;;8.40;;
434;SDS011;204;48.942;9.256;2023-08-21T09:26:49;8.20;;;7.67;;
434;SDS011;204;48.942;9.256;2023-08-21T09:29:15;13.13;;;8.43;;
434;SDS011;204;48.942;9.256;2023-08-21T09:31:41;8.80;;;8.30;;
434;SDS011;204;48.942;9.256;2023-08-21T09:34:10;8.87;;;7.60;;
434;SDS011;204;48.942;9.256;2023-08-21T09:36:36;8.47;;;8.00;;
434;SDS011;204;48.942;9.256;2023-08-21T09:39:04;8.63;;;8.07;;
434;SDS011;204;48.942;9.256;2023-08-21T09:41:31;9.27;;;8.50;;
434;SDS011;204;48.942;9.256;2023-08-21T09:44:00;9.10;;;7.80;;
434;SDS011;204;48.942;9.256;2023-08-21T09:46:26;18.17;;;8.73;;
434;SDS011;204;48.942;9.256;2023-08-21T09:48:53;7.80;;;7.43;;
434;SDS011;204;48.942;9.256;2023-08-21T09:51:19;9.93;;;7.70;;
434;SDS011;204;48.942;9.256;2023-08-21T09:53:46;9.83;;;7.23;;
434;SDS011;204;48.942;9.256;2023-08-21T09:56:14;9.33;;;8.03;;
434;SDS011;204;48.942;9.256;2023-08-21T09:58:39;11.50;;;8.10;;
434;SDS011;204;48.942;9.256;2023-08-21T10:01:06;8.03;;;7.63;;
434;SDS011;204;48.942;9.256;2023-08-21T10:03:38;9.67;;;8.00;;
434;SDS011;204;48.942;9.256;2023-08-21T10:06:05;7.33;;;6.93;;
434;SDS011;204;48.942;9.256;2023-08-21T10:08:35;8.37;;;7.93;;
434;SDS011;204;48.942;9.256;2023-08-21T10:11:06;16.33;;;9.67;;
434;SDS011;204;48.942;9.256;2023-08-21T10:13:33;7.03;;;6.63;;
434;SDS011;204;48.942;9.256;2023-08-21T10:16:01;8.03;;;6.60;;
434;SDS011;204;48.942;9.256;2023-08-21T10:18:31;9.07;;;7.10;;
434;SDS011;204;48.942;9.256;2023-08-21T10:21:18;7.70;;;7.30;;
434;SDS011;204;48.942;9.256;2023-08-21T10:23:48;18.00;;;17.10;;
434;SDS011;204;48.942;9.256;2023-08-21T10:26:16;9.13;;;8.63;;
434;SDS011;204;48.942;9.256;2023-08-21T10:28:51;7.80;;;7.40;;
434;SDS011;204;48.942;9.256;2023-08-21T10:32:01;7.47;;;7.00;;
434;SDS011;204;48.942;9.256;2023-08-21T10:34:12;7.03;;;6.63;;
434;SDS011;204;48.942;9.256;2023-08-21T10:39:24;9.47;;;6.87;;
434;SDS011;204;48.942;9.256;2023-08-21T10:41:54;7.87;;;7.30;;
434;SDS011;204;48.942;9.256;2023-08-21T10:44:52;7.40;;;7.03;;
434;SDS011;204;48.942;9.256;2023-08-21T10:49:54;8.50;;;7.63;;
434;SDS011;204;48.942;9.256;2023-08-21T10:52:22;8.17;;;7.40;;
434;SDS011;204;48.942;9.256;2023-08-21T10:54:58;8.13;;;7.73;;
434;SDS011;204;48.942;9.256;2023-08-21T10:57:25;9.90;;;7.57;;
434;SDS011;204;48.942;9.256;2023-08-21T10:59:56;7.97;;;7.50;;
434;SDS011;204;48.942;9.256;2023-08-21T11:02:23;8.07;;;7.57;;
434;SDS011;204;48.942;9.256;2023-08-21T11:04:50;9.63;;;8.57;;
434;SDS011;204;48.942;9.256;2023-08-21T11:07:16;8.97;;;8.10;;
434;SDS011;204;48.942;9.256;2023-08-21T11:09:42;7.97;;;7.17;;
434;SDS011;204;48.942;9.256;2023-08-21T11:12:09;6.70;;;6.30;;
434;SDS011;204;48.942;9.256;2023-08-21T11:14:39;9.87;;;7.20;;
434;SDS011;204;48.942;9.256;2023-08-21T11:17:05;7.00;;;6.50;;
434;SDS011;204;48.942;9.256;2023-08-21T11:19:33;6.57;;;6.17;;
434;SDS011;204;48.942;9.256;2023-08-21T11:21:59;7.10;;;6.70;;
434;SDS011;204;48.942;9.256;2023-08-21T11:27:05;8.50;;;6.80;;
434;SDS011;204;48.942;9.256;2023-08-21T11:29:37;7.10;;;6.70;;
434;SDS011;204;48.942;9.256;2023-08-21T11:32:14;8.93;;;6.60;;
434;SDS011;204;48.942;9.256;2023-08-21T11:34:41;7.97;;;7.57;;
434;SDS011;204;48.942;9.256;2023-08-21T11:37:11;8.00;;;7.30;;
434;SDS011;204;48.942;9.256;2023-08-21T11:39:44;8.27;;;7.73;;
434;SDS011;204;48.942;9.256;2023-08-21T11:42:11;7.03;;;6.63;;
434;SDS011;204;48.942;9.256;2023-08-21T11:44:44;9.73;;;7.00;;
434;SDS011;204;48.942;9.256;2023-08-21T11:47:18;9.30;;;6.77;;
434;SDS011;204;48.942;9.256;2023-08-21T11:49:45;7.00;;;6.60;;
434;SDS011;204;48.942;9.256;2023-08-21T11:52:21;8.13;;;7.10;;
434;SDS011;204;48.942;9.256;2023-08-21T11:54:52;8.30;;;7.80;;
434;SDS011;204;48.942;9.256;2023-08-21T11:57:19;7.70;;;7.30;;
434;SDS011;204;48.942;9.256;2023-08-21T11:59:53;9.50;;;6.73;;
434;SDS011;204;48.942;9.256;2023-08-21T12:05:03;6.60;;;6.20;;
434;SDS011;204;48.942;9.256;2023-08-21T12:07:32;7.13;;;5.93;;
434;SDS011;204;48.942;9.256;2023-08-21T12:09:58;6.83;;;6.43;;
434;SDS011;204;48.942;9.256;2023-08-21T12:12:24;6.60;;;6.20;;
434;SDS011;204;48.942;9.256;2023-08-21T12:14:50;6.73;;;6.33;;
434;SDS011;204;48.942;9.256;2023-08-21T12:17:15;8.33;;;7.07;;
434;SDS011;204;48.942;9.256;2023-08-21T12:19:41;8.07;;;5.83;;
434;SDS011;204;48.942;9.256;2023-08-21T12:22:08;7.13;;;6.73;;
434;SDS011;204;48.942;9.256;2023-08-21T12:24:34;7.77;;;6.70;;
434;SDS011;204;48.942;9.256;2023-08-21T12:26:59;7.03;;;6.63;;
434;SDS011;204;48.942;9.256;2023-08-21T12:29:25;6.47;;;6.10;;
434;SDS011;204;48.942;9.256;2023-08-21T12:31:51;7.80;;;6.57;;
434;SDS011;204;48.942;9.256;2023-08-21T12:34:17;8.40;;;7.00;;
434;SDS011;204;48.942;9.256;2023-08-21T12:36:43;7.10;;;6.10;;
434;SDS011;204;48.942;9.256;2023-08-21T12:39:08;8.43;;;6.13;;
434;SDS011;204;48.942;9.256;2023-08-21T12:41:34;10.27;;;7.07;;
434;SDS011;204;48.942;9.256;2023-08-21T12:44:00;8.43;;;6.70;;
434;SDS011;204;48.942;9.256;2023-08-21T12:46:27;8.17;;;7.60;;
434;SDS011;204;48.942;9.256;2023-08-21T12:48:54;12.57;;;8.10;;
434;SDS011;204;48.942;9.256;2023-08-21T12:51:20;10.23;;;9.73;;
434;SDS011;204;48.942;9.256;2023-08-21T12:53:46;7.23;;;6.20;;
434;SDS011;204;48.942;9.256;2023-08-21T12:56:12;10.40;;;6.20;;
434;SDS011;204;48.942;9.256;2023-08-21T12:58:37;7.70;;;6.20;;
434;SDS011;204;48.942;9.256;2023-08-21T13:01:03;8.97;;;6.83;;
434;SDS011;204;48.942;9.256;2023-08-21T13:03:30;7.80;;;6.63;;
434;SDS011;204;48.942;9.256;2023-08-21T13:05:55;6.77;;;6.30;;
434;SDS011;204;48.942;9.256;2023-08-21T13:08:21;9.37;;;6.53;;
434;SDS011;204;48.942;9.256;2023-08-21T13:10:47;6.60;;;5.73;;
434;SDS011;204;48.942;9.256;2023-08-21T13:13:12;6.20;;;5.73;;
434;SDS011;204;48.942;9.256;2023-08-21T13:15:38;6.03;;;5.70;;
434;SDS011;204;48.942;9.256;2023-08-21T13:18:04;6.60;;;6.20;;
434;SDS011;204;48.942;9.256;2023-08-21T13:20:29;6.37;;;6.00;;
434;SDS011;204;48.942;9.256;2023-08-21T13:22:55;5.40;;;5.10;;
434;SDS011;204;48.942;9.256;2023-08-21T13:25:21;5.67;;;5.37;;
434;SDS011;204;48.942;9.256;2023-08-21T13:27:49;6.23;;;5.90;;
434;SDS011;204;48.942;9.256;2023-08-21T13:30:16;9.40;;;5.47;;
434;SDS011;204;48.942;9.256;2023-08-21T13:32:42;7.07;;;5.80;;
434;SDS011;204;48.942;9.256;2023-08-21T13:35:08;11.40;;;6.83;;
434;SDS011;204;48.942;9.256;2023-08-21T13:37:34;7.20;;;6.53;;
434;SDS011;204;48.942;9.256;2023-08-21T13:40:00;6.30;;;5.33;;
434;SDS011;204;48.942;9.256;2023-08-21T13:42:33;11.27;;;6.03;;
434;SDS011;204;48.942;9.256;2023-08-21T13:45:02;7.93;;;6.07;;
434;SDS011;204;48.942;9.256;2023-08-21T13:47:28;7.27;;;5.87;;
434;SDS011;204;48.942;9.256;2023-08-21T13:49:54;6.63;;;5.40;;
434;SDS011;204;48.942;9.256;2023-08-21T13:52:19;5.77;;;5.47;;
434;SDS011;204;48.942;9.256;2023-08-21T13:54:45;7.47;;;5.60;;
434;SDS011;204;48.942;9.256;2023-08-21T13:57:11;7.17;;;6.77;;
434;SDS011;204;48.942;9.256;2023-08-21T13:59:36;6.00;;;4.93;;
434;SDS011;204;48.942;9.256;2023-08-21T14:02:02;7.13;;;5.40;;
434;SDS011;204;48.942;9.256;2023-08-21T14:04:27;7.50;;;4.83;;
434;SDS011;204;48.942;9.256;2023-08-21T14:06:55;6.10;;;5.20;;
434;SDS011;204;48.942;9.256;2023-08-21T14:09:20;6.20;;;5.50;;
434;SDS011;204;48.942;9.256;2023-08-21T14:11:46;7.00;;;4.37;;
434;SDS011;204;48.942;9.256;2023-08-21T14:14:11;13.80;;;4.80;;
434;SDS011;204;48.942;9.256;2023-08-21T14:16:37;6.20;;;4.17;;
434;SDS011;204;48.942;9.256;2023-08-21T14:19:02;5.30;;;5.03;;
434;SDS011;204;48.942;9.256;2023-08-21T14:21:28;5.00;;;4.70;;
434;SDS011;204;48.942;9.256;2023-08-21T14:23:54;6.20;;;5.90;;
434;SDS011;204;48.942;9.256;2023-08-21T14:26:19;5.40;;;4.73;;
434;SDS011;204;48.942;9.256;2023-08-21T14:28:45;5.73;;;4.90;;
434;SDS011;204;48.942;9.256;2023-08-21T14:31:16;7.83;;;5.40;;
434;SDS011;204;48.942;9.256;2023-08-21T14:33:42;5.43;;;5.13;;
434;SDS011;204;48.942;9.256;2023-08-21T14:36:08;5.53;;;4.90;;
434;SDS011;204;48.942;9.256;2023-08-21T14:38:34;7.10;;;5.50;;
434;SDS011;204;48.942;9.256;2023-08-21T14:40:59;7.80;;;5.77;;
434;SDS011;204;48.942;9.256;2023-08-21T14:43:25;8.20;;;5.30;;
434;SDS011;204;48.942;9.256;2023-08-21T14:45:51;8.67;;;5.53;;
434;SDS011;204;48.942;9.256;2023-08-21T14:48:16;6.43;;;5.43;;
434;SDS011;204;48.942;9.256;2023-08-21T14:50:42;6.10;;;5.80;;
434;SDS011;204;48.942;9.256;2023-08-21T14:53:08;9.73;;;5.87;;
434;SDS011;204;48.942;9.256;2023-08-21T14:55:34;7.63;;;5.43;;
434;SDS011;204;48.942;9.256;2023-08-21T14:57:59;8.80;;;5.77;;
434;SDS011;204;48.942;9.256;2023-08-21T15:00:30;6.23;;;5.90;;
434;SDS011;204;48.942;9.256;2023-08-21T15:02:56;5.63;;;5.07;;
434;SDS011;204;48.942;9.256;2023-08-21T15:05:21;7.67;;;7.27;;
434;SDS011;204;48.942;9.256;2023-08-21T15:07:47;8.87;;;8.37;;
434;SDS011;204;48.942;9.256;2023-08-21T15:10:12;8.40;;;5.20;;
434;SDS011;204;48.942;9.256;2023-08-21T15:12:38;5.93;;;5.63;;
434;SDS011;204;48.942;9.256;2023-08-21T15:15:04;5.20;;;4.90;;
434;SDS011;204;48.942;9.256;2023-08-21T15:17:30;6.40;;;5.10;;
434;SDS011;204;48.942;9.256;2023-08-21T15:19:56;6.50;;;6.10;;
434;SDS011;204;48.942;9.256;2023-08-21T15:22:21;8.03;;;5.70;;
434;SDS011;204;48.942;9.256;2023-08-21T15:24:47;6.20;;;5.73;;
434;SDS011;204;48.942;9.256;2023-08-21T15:27:12;8.03;;;5.83;;
434;SDS011;204;48.942;9.256;2023-08-21T15:29:42;7.30;;;5.87;;
434;SDS011;204;48.942;9.256;2023-08-21T15:32:07;5.30;;;5.00;;
434;SDS011;204;48.942;9.256;2023-08-21T15:34:33;5.67;;;5.37;;
434;SDS011;204;48.942;9.256;2023-08-21T15:36:59;5.30;;;4.83;;
434;SDS011;204;48.942;9.256;2023-08-21T15:39:24;5.93;;;5.63;;
434;SDS011;204;48.942;9.256;2023-08-21T15:41:50;9.70;;;5.93;;